createdAt,value
2023-04-27T00:02:08.322Z,97750.13
2023-04-27T00:04:35.722Z,97750.13
2023-04-27T00:07:02.707Z,97755.72
2023-04-27T00:09:29.709Z,97751.38
2023-04-27T00:11:56.739Z,97753.91
2023-04-27T00:14:24.040Z,97753.16
2023-04-27T00:16:52.593Z,97752.38
2023-04-27T00:19:19.677Z,97752.09
2023-04-27T00:21:46.720Z,97754.66
2023-04-27T00:24:13.654Z,97754.13
2023-04-27T00:26:40.769Z,97757.84
2023-04-27T00:29:07.760Z,97758.06
2023-04-27T00:31:34.667Z,97758.06
2023-04-27T00:34:01.675Z,97750.72
2023-04-27T00:36:29.546Z,97753.31
2023-04-27T00:38:56.623Z,97752.03
2023-04-27T00:41:24.616Z,97751.53
2023-04-27T00:43:51.540Z,97745.69
2023-04-27T00:46:20.014Z,97752.59
2023-04-27T00:48:47.240Z,97746.22
2023-04-27T00:51:15.977Z,97747.00
2023-04-27T00:53:43.840Z,97732.97
2023-04-27T00:56:11.271Z,97742.66
2023-04-27T00:58:38.231Z,97739.09
2023-04-27T01:01:06.037Z,97747.78
2023-04-27T01:03:33.289Z,97744.22
2023-04-27T01:06:01.950Z,97739.59
2023-04-27T01:08:29.826Z,97734.75
2023-04-27T01:10:57.021Z,97744.97
2023-04-27T01:13:25.005Z,97747.44
2023-04-27T01:15:51.944Z,97746.53
2023-04-27T01:18:19.908Z,97746.41
2023-04-27T01:20:46.863Z,97740.69
2023-04-27T01:23:16.818Z,97748.59
2023-04-27T01:25:44.535Z,97746.78
2023-04-27T01:28:11.555Z,97745.03
2023-04-27T01:30:39.576Z,97747.84
2023-04-27T01:33:06.610Z,97743.19
2023-04-27T01:35:33.554Z,97744.28
2023-04-27T01:38:00.982Z,97739.16
2023-04-27T01:40:35.445Z,97748.78
2023-04-27T01:43:03.288Z,97744.19
2023-04-27T01:45:30.308Z,97745.19
2023-04-27T01:47:59.712Z,97740.00
2023-04-27T01:50:27.648Z,97738.13
2023-04-27T01:52:54.864Z,97738.31
2023-04-27T01:55:21.915Z,97746.72
2023-04-27T01:57:48.845Z,97749.50
2023-04-27T02:00:16.255Z,97743.16
2023-04-27T02:02:51.501Z,97747.69
2023-04-27T02:05:18.885Z,97751.72
2023-04-27T02:07:47.625Z,97749.38
2023-04-27T02:10:16.743Z,97752.94
2023-04-27T02:12:45.928Z,97759.56
2023-04-27T02:15:12.974Z,97759.13
2023-04-27T02:17:40.273Z,97753.84
2023-04-27T02:20:08.203Z,97761.53
2023-04-27T02:22:35.195Z,97765.09
2023-04-27T02:25:02.813Z,97752.59
2023-04-27T02:27:29.983Z,97762.22
2023-04-27T02:29:58.349Z,97762.63
2023-04-27T02:32:25.944Z,97761.88
2023-04-27T02:34:53.429Z,97762.63
2023-04-27T02:37:20.454Z,97756.75
2023-04-27T02:39:49.850Z,97767.25
2023-04-27T02:42:17.001Z,97761.75
2023-04-27T02:44:44.185Z,97771.44
2023-04-27T02:47:12.740Z,97768.66
2023-04-27T02:49:40.412Z,97775.50
2023-04-27T02:52:09.330Z,97769.06
2023-04-27T02:54:36.280Z,97773.09
2023-04-27T02:57:03.803Z,97782.44
2023-04-27T02:59:30.949Z,97783.44
2023-04-27T03:01:58.428Z,97778.53
2023-04-27T03:04:28.396Z,97781.31
2023-04-27T03:06:55.901Z,97780.28
2023-04-27T03:09:23.067Z,97784.81
2023-04-27T03:11:50.932Z,97782.50
2023-04-27T03:14:17.952Z,97778.66
2023-04-27T03:16:45.057Z,97783.66
2023-04-27T03:19:13.990Z,97789.53
2023-04-27T03:21:41.156Z,97788.47
2023-04-27T03:24:09.295Z,97783.09
2023-04-27T03:26:36.347Z,97793.00
2023-04-27T03:29:04.522Z,97789.91
2023-04-27T03:31:31.922Z,97786.16
2023-04-27T03:33:59.122Z,97794.03
2023-04-27T03:36:27.536Z,97784.72
2023-04-27T03:38:54.568Z,97790.41
2023-04-27T03:41:22.422Z,97782.56
2023-04-27T03:43:51.462Z,97796.34
2023-04-27T03:46:18.642Z,97798.66
2023-04-27T03:48:47.450Z,97790.28
2023-04-27T03:51:15.534Z,97791.81
2023-04-27T03:53:45.166Z,97797.19
2023-04-27T03:56:13.756Z,97802.22
2023-04-27T03:58:41.064Z,97807.50
2023-04-27T04:01:19.588Z,97802.97
2023-04-27T04:03:48.592Z,97800.97
2023-04-27T04:06:15.833Z,97798.66
2023-04-27T04:08:43.003Z,97806.00
2023-04-27T04:11:10.535Z,97809.47
2023-04-27T04:13:37.816Z,97804.56
2023-04-27T04:16:06.036Z,97811.56
2023-04-27T04:18:37.338Z,97813.31
2023-04-27T04:21:06.175Z,97817.34
2023-04-27T04:23:34.188Z,97812.03
2023-04-27T04:26:02.502Z,97794.81
2023-04-27T04:28:33.747Z,97803.09
2023-04-27T04:31:06.164Z,97811.47
2023-04-27T04:33:34.024Z,97805.03
2023-04-27T04:36:04.750Z,97803.78
2023-04-27T04:38:33.262Z,97810.34
2023-04-27T04:41:03.249Z,97803.66
2023-04-27T04:43:33.567Z,97797.03
2023-04-27T04:46:05.795Z,97801.09
2023-04-27T04:48:34.046Z,97799.28
2023-04-27T04:51:02.187Z,97802.53
2023-04-27T04:53:30.855Z,97803.31
2023-04-27T04:55:57.857Z,97807.34
2023-04-27T04:58:25.170Z,97804.28
2023-04-27T05:00:53.451Z,97797.44
2023-04-27T05:03:20.696Z,97816.97
2023-04-27T05:05:48.931Z,97811.69
2023-04-27T05:08:17.447Z,97812.94
2023-04-27T05:10:57.798Z,97820.06
2023-04-27T05:13:28.299Z,97818.31
2023-04-27T05:15:55.930Z,97816.38
2023-04-27T05:18:22.880Z,97816.97
2023-04-27T05:20:49.873Z,97813.97
2023-04-27T05:23:18.406Z,97815.31
2023-04-27T05:25:45.377Z,97825.03
2023-04-27T05:28:12.744Z,97824.34
2023-04-27T05:30:41.144Z,97830.22
2023-04-27T05:33:08.307Z,97836.84
2023-04-27T05:35:35.841Z,97835.41
2023-04-27T05:38:03.258Z,97837.50
2023-04-27T05:40:31.504Z,97834.72
2023-04-27T05:42:58.496Z,97834.97
2023-04-27T05:45:27.004Z,97836.81
2023-04-27T05:47:55.377Z,97844.22
2023-04-27T05:50:22.724Z,97839.97
2023-04-27T05:52:49.683Z,97846.88
2023-04-27T05:55:16.702Z,97839.34
2023-04-27T05:57:43.704Z,97835.56
2023-04-27T06:00:13.131Z,97843.66
2023-04-27T06:02:40.399Z,97835.28
2023-04-27T06:05:08.300Z,97837.38
2023-04-27T06:07:37.790Z,97842.19
2023-04-27T06:10:05.553Z,97843.25
2023-04-27T06:12:32.818Z,97842.56
2023-04-27T06:15:00.702Z,97843.53
2023-04-27T06:17:28.596Z,97843.94
2023-04-27T06:19:55.637Z,97845.88
2023-04-27T06:22:22.714Z,97848.56
2023-04-27T06:24:49.721Z,97849.44
2023-04-27T06:27:16.808Z,97849.56
2023-04-27T06:29:43.769Z,97844.34
2023-04-27T06:32:11.455Z,97852.06
2023-04-27T06:34:39.069Z,97854.19
2023-04-27T06:37:07.160Z,97846.97
2023-04-27T06:39:35.606Z,97841.00
2023-04-27T06:42:04.721Z,97842.66
2023-04-27T06:44:32.638Z,97840.16
2023-04-27T06:47:00.166Z,97840.22
2023-04-27T06:49:27.546Z,97837.69
2023-04-27T06:51:54.738Z,97822.13
2023-04-27T06:54:21.959Z,97832.84
2023-04-27T06:56:49.079Z,97838.25
2023-04-27T06:59:16.369Z,97840.06
2023-04-27T07:01:44.282Z,97843.44
2023-04-27T07:04:15.652Z,97837.34
2023-04-27T07:06:42.917Z,97841.66
2023-04-27T07:09:20.148Z,97850.16
2023-04-27T07:12:03.307Z,97844.03
2023-04-27T07:14:30.708Z,97849.16
2023-04-27T07:16:57.858Z,97841.50
2023-04-27T07:19:25.802Z,97852.28
2023-04-27T07:21:53.431Z,97852.03
2023-04-27T07:24:23.417Z,97847.19
2023-04-27T07:26:50.319Z,97839.03
2023-04-27T07:29:27.204Z,97846.16
2023-04-27T07:31:55.985Z,97849.25
2023-04-27T07:34:25.037Z,97842.88
2023-04-27T07:36:54.735Z,97838.50
2023-04-27T07:39:21.712Z,97850.00
2023-04-27T07:41:50.350Z,97853.59
2023-04-27T07:44:21.201Z,97845.09
2023-04-27T07:46:49.256Z,97851.44
2023-04-27T07:49:16.876Z,97849.91
2023-04-27T07:51:43.994Z,97841.44
2023-04-27T07:54:10.998Z,97848.56
2023-04-27T07:56:42.552Z,97854.13
2023-04-27T07:59:09.664Z,97854.88
2023-04-27T08:01:37.111Z,97857.69
2023-04-27T08:04:04.746Z,97857.44
2023-04-27T08:06:33.330Z,97850.41
2023-04-27T08:09:02.304Z,97862.91
2023-04-27T08:11:29.606Z,97860.78
2023-04-27T08:13:56.595Z,97865.59
2023-04-27T08:16:23.751Z,97859.88
2023-04-27T08:18:51.268Z,97854.25
2023-04-27T08:21:18.249Z,97866.25
2023-04-27T08:23:45.715Z,97863.16
2023-04-27T08:26:16.758Z,97862.38
2023-04-27T08:28:43.861Z,97862.97
2023-04-27T08:31:10.907Z,97860.66
2023-04-27T08:33:38.356Z,97858.78
2023-04-27T08:36:05.868Z,97866.63
2023-04-27T08:38:35.114Z,97857.03
2023-04-27T08:41:14.152Z,97857.44
2023-04-27T08:43:50.342Z,97862.38
2023-04-27T08:46:22.114Z,97851.03
2023-04-27T08:48:53.188Z,97862.97
2023-04-27T08:51:21.628Z,97861.78
2023-04-27T08:53:57.085Z,97851.09
2023-04-27T08:56:27.048Z,97857.03
2023-04-27T08:58:55.986Z,97855.16
2023-04-27T09:01:24.826Z,97848.06
2023-04-27T09:04:09.281Z,97845.47
2023-04-27T09:06:36.849Z,97847.94
2023-04-27T09:09:04.628Z,97845.03
2023-04-27T09:11:35.388Z,97843.63
2023-04-27T09:14:23.518Z,97849.19
2023-04-27T09:16:59.802Z,97841.63
2023-04-27T09:19:28.930Z,97839.91
2023-04-27T09:22:11.682Z,97829.41
2023-04-27T09:24:39.045Z,97843.28
2023-04-27T09:27:07.596Z,97833.50
2023-04-27T09:29:40.098Z,97837.34
2023-04-27T09:32:21.315Z,97841.25
2023-04-27T09:34:48.973Z,97830.94
2023-04-27T09:37:16.914Z,97838.75
2023-04-27T09:39:46.434Z,97833.84
2023-04-27T09:42:14.012Z,97823.91
2023-04-27T09:44:41.375Z,97826.81
2023-04-27T09:47:08.996Z,97817.09
2023-04-27T09:49:36.492Z,97809.38
2023-04-27T09:52:04.441Z,97788.69
2023-04-27T09:54:34.789Z,97802.63
2023-04-27T09:57:20.218Z,97799.78
2023-04-27T10:00:12.089Z,97795.28
2023-04-27T10:02:53.332Z,97794.78
2023-04-27T10:05:44.104Z,97787.81
2023-04-27T10:08:13.147Z,97794.53
2023-04-27T10:10:48.173Z,97785.25
2023-04-27T10:13:25.742Z,97794.25
2023-04-27T10:15:54.415Z,97790.69
2023-04-27T10:18:31.389Z,97796.06
2023-04-27T10:21:20.255Z,97790.16
2023-04-27T10:23:49.896Z,97782.28
2023-04-27T10:26:28.941Z,97786.66
2023-04-27T10:29:07.404Z,97791.22
2023-04-27T10:31:37.513Z,97780.19
2023-04-27T10:34:11.915Z,97789.69
2023-04-27T10:36:39.896Z,97778.31
2023-04-27T10:39:17.013Z,97788.94
2023-04-27T10:41:55.633Z,97783.25
2023-04-27T10:44:28.927Z,97783.44
2023-04-27T10:46:57.969Z,97789.88
2023-04-27T10:49:24.895Z,97786.66
2023-04-27T10:51:53.389Z,97787.00
2023-04-27T10:54:22.120Z,97786.22
2023-04-27T10:56:49.010Z,97785.44
2023-04-27T10:59:16.220Z,97789.03
2023-04-27T11:01:43.538Z,97774.00
2023-04-27T11:04:10.773Z,97775.13
2023-04-27T11:06:46.422Z,97780.50
2023-04-27T11:09:14.609Z,97773.16
2023-04-27T11:11:46.377Z,97773.00
2023-04-27T11:14:20.020Z,97770.34
2023-04-27T11:16:50.564Z,97770.72
2023-04-27T11:19:17.798Z,97781.34
2023-04-27T11:21:44.933Z,97770.47
2023-04-27T11:24:15.152Z,97785.75
2023-04-27T11:26:42.604Z,97772.97
2023-04-27T11:29:12.768Z,97779.13
2023-04-27T11:31:52.160Z,97779.53
2023-04-27T11:34:22.774Z,97777.44
2023-04-27T11:37:17.208Z,97784.09
2023-04-27T11:39:46.782Z,97783.13
2023-04-27T11:42:21.069Z,97791.00
2023-04-27T11:44:56.935Z,97775.59
2023-04-27T11:47:27.992Z,97769.69
2023-04-27T11:49:57.495Z,97773.56
2023-04-27T11:52:36.902Z,97764.59
2023-04-27T11:55:04.868Z,97772.56
2023-04-27T11:57:36.995Z,97777.09
2023-04-27T12:00:11.480Z,97766.97
2023-04-27T12:02:44.271Z,97771.09
2023-04-27T12:05:13.750Z,97757.22
2023-04-27T12:07:41.688Z,97757.50
2023-04-27T12:10:09.436Z,97754.34
2023-04-27T12:12:36.494Z,97765.97
2023-04-27T12:15:06.504Z,97763.63
2023-04-27T12:17:34.133Z,97763.97
2023-04-27T12:20:01.789Z,97755.34
2023-04-27T12:22:29.076Z,97761.06
2023-04-27T12:24:58.198Z,97758.06
2023-04-27T12:27:26.699Z,97751.81
2023-04-27T12:29:54.726Z,97749.28
2023-04-27T12:32:21.957Z,97755.28
2023-04-27T12:34:48.987Z,97750.31
2023-04-27T12:37:15.983Z,97752.34
2023-04-27T12:39:43.341Z,97760.97
2023-04-27T12:42:10.384Z,97749.53
2023-04-27T12:44:37.444Z,97749.16
2023-04-27T12:47:05.694Z,97743.50
2023-04-27T12:49:32.949Z,97750.28
2023-04-27T12:52:00.345Z,97754.00
2023-04-27T12:54:27.281Z,97740.69
2023-04-27T12:56:54.227Z,97745.94
2023-04-27T12:59:22.487Z,97746.88
2023-04-27T13:01:49.599Z,97748.41
2023-04-27T13:04:21.549Z,97749.63
2023-04-27T13:06:49.343Z,97735.28
2023-04-27T13:09:20.034Z,97730.38
2023-04-27T13:11:47.268Z,97742.41
2023-04-27T13:14:14.415Z,97734.38
2023-04-27T13:16:42.434Z,97724.97
2023-04-27T13:19:09.976Z,97729.53
2023-04-27T13:21:37.364Z,97723.22
2023-04-27T13:24:04.466Z,97717.91
2023-04-27T13:26:31.565Z,97722.91
2023-04-27T13:28:58.914Z,97719.94
2023-04-27T13:31:26.028Z,97715.25
2023-04-27T13:33:54.092Z,97716.69
2023-04-27T13:36:21.266Z,97716.03
2023-04-27T13:38:49.434Z,97713.31
2023-04-27T13:41:16.860Z,97721.06
2023-04-27T13:43:44.047Z,97714.44
2023-04-27T13:46:11.113Z,97710.03
2023-04-27T13:48:38.287Z,97707.16
2023-04-27T13:51:05.318Z,97695.44
2023-04-27T13:53:32.338Z,97697.50
2023-04-27T13:56:00.487Z,97695.66
2023-04-27T13:58:29.427Z,97707.44
2023-04-27T14:00:58.361Z,97700.88
2023-04-27T14:03:25.579Z,97695.66
2023-04-27T14:05:52.933Z,97700.03
2023-04-27T14:08:20.067Z,97702.78
2023-04-27T14:10:47.159Z,97694.44
2023-04-27T14:13:14.964Z,97694.13
2023-04-27T14:15:42.422Z,97693.50
2023-04-27T14:18:10.146Z,97695.34
2023-04-27T14:20:43.215Z,97696.22
2023-04-27T14:23:11.884Z,97700.19
2023-04-27T14:25:39.434Z,97708.22
2023-04-27T14:28:06.702Z,97714.13
2023-04-27T14:30:35.042Z,97709.97
2023-04-27T14:33:03.179Z,97714.09
2023-04-27T14:35:30.356Z,97717.66
2023-04-27T14:38:02.503Z,97708.34
2023-04-27T14:40:31.490Z,97703.84
2023-04-27T14:43:00.038Z,97699.50
2023-04-27T14:45:36.670Z,97705.03
2023-04-27T14:48:07.299Z,97703.53
2023-04-27T14:50:35.237Z,97706.16
2023-04-27T14:53:05.088Z,97714.16
2023-04-27T14:55:33.209Z,97698.72
2023-04-27T14:58:00.355Z,97699.66
2023-04-27T15:00:27.288Z,97706.47
2023-04-27T15:02:55.920Z,97707.63
2023-04-27T15:05:23.106Z,97703.09
2023-04-27T15:07:50.159Z,97692.84
2023-04-27T15:10:17.247Z,97694.56
2023-04-27T15:12:55.185Z,97705.81
2023-04-27T15:15:23.758Z,97692.13
2023-04-27T15:17:50.848Z,97686.25
2023-04-27T15:20:17.894Z,97692.50
2023-04-27T15:22:44.950Z,97704.25
2023-04-27T15:25:12.443Z,97698.78
2023-04-27T15:27:41.892Z,97694.41
2023-04-27T15:30:09.186Z,97699.72
2023-04-27T15:32:36.564Z,97693.09
2023-04-27T15:35:06.236Z,97706.16
2023-04-27T15:37:35.201Z,97687.53
2023-04-27T15:40:04.217Z,97689.41
2023-04-27T15:42:31.345Z,97684.69
2023-04-27T15:44:59.251Z,97682.84
2023-04-27T15:47:32.798Z,97683.78
2023-04-27T15:49:59.775Z,97683.59
2023-04-27T15:52:27.411Z,97675.44
2023-04-27T15:54:56.387Z,97679.59
2023-04-27T15:57:23.307Z,97676.97
2023-04-27T15:59:50.305Z,97672.41
2023-04-27T16:02:18.923Z,97667.28
2023-04-27T16:04:50.041Z,97670.13
2023-04-27T16:07:17.074Z,97668.78
2023-04-27T16:09:44.303Z,97663.84
2023-04-27T16:12:11.376Z,97673.88
2023-04-27T16:14:38.561Z,97667.63
2023-04-27T16:17:05.724Z,97657.38
2023-04-27T16:19:33.379Z,97663.09
2023-04-27T16:22:01.851Z,97658.72
2023-04-27T16:24:31.674Z,97651.31
2023-04-27T16:27:00.168Z,97652.28
2023-04-27T16:29:27.200Z,97645.81
2023-04-27T16:31:54.593Z,97647.91
2023-04-27T16:34:21.967Z,97640.69
2023-04-27T16:36:50.064Z,97646.59
2023-04-27T16:39:19.752Z,97638.81
2023-04-27T16:41:47.264Z,97641.28
2023-04-27T16:44:14.484Z,97639.38
2023-04-27T16:46:42.266Z,97644.66
2023-04-27T16:49:10.503Z,97639.75
2023-04-27T16:51:37.747Z,97641.66
2023-04-27T16:54:05.189Z,97653.03
2023-04-27T16:56:35.023Z,97648.66
2023-04-27T16:59:02.252Z,97655.69
2023-04-27T17:01:31.306Z,97658.38
2023-04-27T17:04:00.211Z,97652.47
2023-04-27T17:06:28.228Z,97649.63
2023-04-27T17:08:56.635Z,97647.72
2023-04-27T17:11:24.891Z,97656.44
2023-04-27T17:13:51.936Z,97646.41
2023-04-27T17:16:22.343Z,97649.66
2023-04-27T17:18:50.167Z,97646.94
2023-04-27T17:21:22.234Z,97646.94
2023-04-27T17:23:52.004Z,97651.69
2023-04-27T17:26:23.272Z,97646.75
2023-04-27T17:28:53.776Z,97657.53
2023-04-27T17:31:24.271Z,97644.19
2023-04-27T17:33:51.534Z,97649.09
2023-04-27T17:36:19.556Z,97655.16
2023-04-27T17:38:46.789Z,97654.00
2023-04-27T17:41:13.828Z,97653.63
2023-04-27T17:43:41.246Z,97645.63
2023-04-27T17:46:13.769Z,97643.28
2023-04-27T17:48:44.282Z,97645.13
2023-04-27T17:51:11.612Z,97649.81
2023-04-27T17:53:38.785Z,97648.28
2023-04-27T17:56:05.863Z,97643.88
2023-04-27T17:58:33.297Z,97646.81
2023-04-27T18:01:00.377Z,97647.88
2023-04-27T18:03:27.611Z,97646.69
2023-04-27T18:05:54.999Z,97652.38
2023-04-27T18:08:24.044Z,97648.59
2023-04-27T18:10:51.415Z,97635.22
2023-04-27T18:13:18.482Z,97642.28
2023-04-27T18:15:46.341Z,97648.09
2023-04-27T18:18:17.123Z,97640.50
2023-04-27T18:20:50.385Z,97647.84
2023-04-27T18:23:17.449Z,97650.84
2023-04-27T18:25:45.005Z,97654.56
2023-04-27T18:28:12.109Z,97663.63
2023-04-27T18:30:39.183Z,97660.34
2023-04-27T18:33:06.528Z,97664.66
2023-04-27T18:35:33.677Z,97661.41
2023-04-27T18:38:00.965Z,97676.47
2023-04-27T18:40:28.347Z,97674.53
2023-04-27T18:42:55.970Z,97676.16
2023-04-27T18:45:23.260Z,97678.19
2023-04-27T18:47:50.299Z,97676.06
2023-04-27T18:50:17.770Z,97677.81
2023-04-27T18:52:46.374Z,97677.81
2023-04-27T18:55:14.640Z,97669.66
2023-04-27T18:57:41.864Z,97678.91
2023-04-27T19:00:11.395Z,97679.34
2023-04-27T19:02:39.192Z,97694.03
2023-04-27T19:05:14.372Z,97688.50
2023-04-27T19:07:42.314Z,97688.63
2023-04-27T19:10:10.361Z,97693.03
2023-04-27T19:12:39.111Z,97695.78
2023-04-27T19:15:06.593Z,97691.84
2023-04-27T19:17:41.243Z,97688.50
2023-04-27T19:20:09.500Z,97683.44
2023-04-27T19:22:37.275Z,97682.66
2023-04-27T19:25:05.106Z,97686.25
2023-04-27T19:27:32.682Z,97677.84
2023-04-27T19:29:59.766Z,97684.19
2023-04-27T19:32:27.859Z,97680.03
2023-04-27T19:34:58.867Z,97675.50
2023-04-27T19:37:28.684Z,97678.50
2023-04-27T19:39:57.028Z,97670.50
2023-04-27T19:42:27.782Z,97739.94
2023-04-27T19:44:56.021Z,97679.72
2023-04-27T19:47:24.270Z,97659.22
2023-04-27T19:49:51.475Z,97661.03
2023-04-27T19:52:18.566Z,97631.78
2023-04-27T19:54:51.690Z,97657.56
2023-04-27T19:57:18.963Z,97677.91
2023-04-27T19:59:46.119Z,97683.47
2023-04-27T20:02:13.374Z,97653.53
2023-04-27T20:04:41.743Z,97668.03
2023-04-27T20:07:09.291Z,97651.22
2023-04-27T20:09:36.408Z,97657.47
2023-04-27T20:12:04.372Z,97652.75
2023-04-27T20:14:33.909Z,97630.31
2023-04-27T20:17:02.666Z,97634.66
2023-04-27T20:19:30.357Z,97669.16
2023-04-27T20:21:57.613Z,97663.53
2023-04-27T20:24:24.697Z,97637.53
2023-04-27T20:26:51.703Z,97645.94
2023-04-27T20:29:19.108Z,97622.16
2023-04-27T20:31:46.568Z,97658.00
2023-04-27T20:34:14.119Z,97620.84
2023-04-27T20:36:41.703Z,97633.91
2023-04-27T20:39:09.236Z,97621.88
2023-04-27T20:41:36.442Z,97653.22
2023-04-27T20:44:03.903Z,97660.94
2023-04-27T20:46:31.432Z,97633.75
2023-04-27T20:48:58.537Z,97634.03
2023-04-27T20:51:26.588Z,97620.38
2023-04-27T20:53:53.843Z,97635.66
2023-04-27T20:56:20.957Z,97650.47
2023-04-27T20:58:48.150Z,97613.31
2023-04-27T21:01:15.278Z,97641.34
2023-04-27T21:03:42.566Z,97684.41
2023-04-27T21:06:09.964Z,97654.88
2023-04-27T21:08:37.756Z,97646.47
2023-04-27T21:11:05.245Z,97626.44
2023-04-27T21:13:32.412Z,97642.97
2023-04-27T21:15:59.529Z,97667.06
2023-04-27T21:18:30.432Z,97672.09
2023-04-27T21:20:58.176Z,97644.03
2023-04-27T21:23:25.401Z,97620.31
2023-04-27T21:25:52.581Z,97669.38
2023-04-27T21:28:19.771Z,97643.22
2023-04-27T21:30:46.921Z,97638.56
2023-04-27T21:33:14.046Z,97648.66
2023-04-27T21:35:41.354Z,97637.06
2023-04-27T21:38:08.531Z,97629.44
2023-04-27T21:40:35.550Z,97611.91
2023-04-27T21:43:02.932Z,97632.09
2023-04-27T21:45:29.976Z,97639.44
2023-04-27T21:47:57.036Z,97626.41
2023-04-27T21:50:24.464Z,97654.03
2023-04-27T21:52:51.470Z,97623.78
2023-04-27T21:55:18.530Z,97619.38
2023-04-27T21:57:45.779Z,97643.63
2023-04-27T22:00:13.954Z,97625.31
2023-04-27T22:02:48.685Z,97646.25
2023-04-27T22:05:16.682Z,97602.53
2023-04-27T22:07:46.148Z,97619.84
2023-04-27T22:10:13.784Z,97628.00
2023-04-27T22:12:40.857Z,97639.97
2023-04-27T22:15:08.503Z,97647.16
2023-04-27T22:17:35.852Z,97617.38
2023-04-27T22:20:05.188Z,97641.50
2023-04-27T22:22:32.246Z,97638.69
2023-04-27T22:24:59.546Z,97629.72
2023-04-27T22:27:35.134Z,97634.81
2023-04-27T22:30:06.843Z,97616.50
2023-04-27T22:32:34.265Z,97604.31
2023-04-27T22:35:02.202Z,97601.25
2023-04-27T22:37:29.766Z,97590.88
2023-04-27T22:39:57.606Z,97612.66
2023-04-27T22:42:24.761Z,97587.28
2023-04-27T22:44:51.838Z,97602.38
2023-04-27T22:47:18.910Z,97606.94
2023-04-27T22:49:47.272Z,97586.72
2023-04-27T22:52:14.537Z,97618.53
2023-04-27T22:54:41.544Z,97620.81
2023-04-27T22:57:08.619Z,97608.69
2023-04-27T22:59:35.631Z,97593.34
2023-04-27T23:02:02.746Z,97585.78
2023-04-27T23:04:29.864Z,97583.44
2023-04-27T23:06:57.799Z,97566.06
2023-04-27T23:09:24.861Z,97590.47
2023-04-27T23:11:51.936Z,97581.91
2023-04-27T23:14:19.081Z,97600.00
2023-04-27T23:16:48.981Z,97571.38
2023-04-27T23:19:16.117Z,97563.50
2023-04-27T23:21:43.140Z,97614.97
2023-04-27T23:24:10.267Z,97572.22
2023-04-27T23:26:37.341Z,97600.06
2023-04-27T23:29:04.840Z,97604.06
2023-04-27T23:31:32.221Z,97556.78
2023-04-27T23:33:59.812Z,97568.53
2023-04-27T23:36:26.969Z,97562.72
2023-04-27T23:38:54.115Z,97560.88
2023-04-27T23:41:21.300Z,97587.38
2023-04-27T23:43:48.517Z,97576.84
2023-04-27T23:46:15.659Z,97556.84
2023-04-27T23:48:42.670Z,97566.47
2023-04-27T23:51:09.732Z,97588.38
2023-04-27T23:53:36.807Z,97574.50
2023-04-27T23:56:03.858Z,97567.59
2023-04-27T23:58:31.239Z,97573.75
